Time;durP1;ratioP1;P1;durP2;ratioP2;P2;SDS_P1;SDS_P2;PMS_P1;PMS_P2;Temp;Humidity;BMP_temperature;BMP_pressure;BME280_temperature;BME280_humidity;BME280_pressure;Samples;Min_cycle;Max_cycle;Signal;HPM_P1;HPM_P2
2021/05/07 00:01:28;;;;;;;3.28;2.17;;;384.80;1433.60;;;;;;5055165;28;20091;-75
2021/05/07 00:03:54;;;;;;;1.77;1.50;;;384.80;1408.00;;;;;;5053883;28;20473;-75
2021/05/07 00:06:19;;;;;;;2.35;1.70;;;384.80;1408.00;;;;;;5053641;28;20041;-75
2021/05/07 00:08:45;;;;;;;2.15;1.92;;;384.90;1408.00;;;;;;5057666;28;20056;-74
2021/05/07 00:11:19;;;;;;;3.88;2.22;;;384.90;1382.40;;;;;;5057966;28;20480;-75
2021/05/07 00:13:47;;;;;;;2.33;2.13;;;409.70;1408.00;;;;;;5073343;28;20044;-74
2021/05/07 00:16:13;;;;;;;2.28;2.05;;;409.70;1408.00;;;;;;5054914;28;20048;-75
2021/05/07 00:18:39;;;;;;;6.18;2.33;;;409.70;1408.00;;;;;;5070159;28;20031;-74
2021/05/07 00:21:05;;;;;;;3.30;2.40;;;409.70;1433.60;;;;;;5054200;28;20017;-73
2021/05/07 00:23:32;;;;;;;3.08;2.55;;;409.80;1408.00;;;;;;5054462;28;20469;-74
2021/05/07 00:25:58;;;;;;;6.60;2.10;;;409.80;1408.00;;;;;;5070039;28;20373;-74
2021/05/07 00:28:24;;;;;;;4.43;2.47;;;409.80;1408.00;;;;;;5054470;28;20488;-74
2021/05/07 00:30:50;;;;;;;7.72;2.67;;;409.80;1408.00;;;;;;5069977;28;20507;-74
2021/05/07 00:33:16;;;;;;;3.45;2.13;;;409.70;1408.00;;;;;;5054466;28;20021;-74
2021/05/07 00:35:41;;;;;;;3.25;1.95;;;409.70;1433.60;;;;;;5054776;28;20476;-74
2021/05/07 00:38:07;;;;;;;4.60;1.90;;;409.70;1433.60;;;;;;5054685;28;20029;-74
2021/05/07 00:40:34;;;;;;;8.75;1.83;;;409.60;1459.20;;;;;;5054239;28;20083;-75
2021/05/07 00:43:00;;;;;;;3.50;2.08;;;409.60;1433.60;;;;;;5054498;28;20036;-74
2021/05/07 00:45:27;;;;;;;8.13;2.10;;;409.60;1433.60;;;;;;5054284;28;20047;-74
2021/05/07 00:47:57;;;;;;;2.35;2.20;;;409.70;1433.60;;;;;;5054501;28;20021;-74
2021/05/07 00:50:28;;;;;;;2.80;2.03;;;384.90;1433.60;;;;;;5054190;28;20516;-75
2021/05/07 00:53:00;;;;;;;4.32;2.10;;;384.90;1433.60;;;;;;5053963;28;20120;-74
2021/05/07 00:55:27;;;;;;;6.80;2.30;;;384.90;1433.60;;;;;;5052789;28;20075;-73
2021/05/07 00:57:53;;;;;;;2.40;2.15;;;384.80;1459.20;;;;;;5054028;28;20025;-74
2021/05/07 01:00:20;;;;;;;2.97;1.90;;;384.90;1433.60;;;;;;5069509;28;20112;-74
2021/05/07 01:02:46;;;;;;;5.88;1.85;;;384.90;1433.60;;;;;;5052131;28;20044;-75
2021/05/07 01:05:12;;;;;;;2.70;2.10;;;409.60;1484.80;;;;;;5053369;28;20025;-75
2021/05/07 01:07:39;;;;;;;7.10;1.95;;;384.90;1459.20;;;;;;5053813;28;20027;-74
2021/05/07 01:10:07;;;;;;;6.82;2.85;;;409.60;1484.80;;;;;;5053567;28;20048;-75
2021/05/07 01:12:34;;;;;;;8.80;2.83;;;409.60;1459.20;;;;;;5069053;28;20025;-74
2021/05/07 01:15:14;;;;;;;1.63;1.40;;;409.70;1459.20;;;;;;5053973;28;20024;-74
2021/05/07 01:17:44;;;;;;;;;;;409.80;1459.20;;;;;;5052845;28;20017;-75
2021/05/07 01:20:13;;;;;;;2.65;1.58;;;409.80;1433.60;;;;;;5069084;28;19912;-74
2021/05/07 01:22:41;;;;;;;6.38;2.72;;;409.80;1433.60;;;;;;5053539;28;20079;-74
2021/05/07 01:25:08;;;;;;;2.72;1.92;;;409.80;1433.60;;;;;;5053510;28;20036;-75
2021/05/07 01:27:39;;;;;;;2.45;1.95;;;409.90;1433.60;;;;;;5068959;28;20124;-74
2021/05/07 01:30:18;;;;;;;2.22;1.77;;;409.90;1408.00;;;;;;5052101;28;20123;-75
2021/05/07 01:32:44;;;;;;;2.92;1.98;;;410.10;1408.00;;;;;;5053392;28;20064;-75
2021/05/07 01:35:14;;;;;;;3.20;1.65;;;410.10;1408.00;;;;;;5053167;28;20025;-74
2021/05/07 01:37:41;;;;;;;3.17;1.23;;;410.10;1408.00;;;;;;5053114;28;20029;-75
2021/05/07 01:40:29;;;;;;;3.75;1.60;;;410.20;1408.00;;;;;;5052015;28;20032;-74
2021/05/07 01:42:55;;;;;;;2.50;1.60;;;410.20;1382.40;;;;;;5067793;28;20040;-74
2021/05/07 01:45:32;;;;;;;4.88;1.73;;;410.20;1382.40;;;;;;5068132;28;20029;-73
2021/05/07 01:47:59;;;;;;;2.55;1.60;;;410.30;1382.40;;;;;;5052694;28;20052;-74
2021/05/07 01:50:30;;;;;;;3.03;1.50;;;410.20;1382.40;;;;;;5053406;28;20025;-74
2021/05/07 01:52:57;;;;;;;3.35;1.73;;;410.30;1382.40;;;;;;5068322;28;20082;-74
2021/05/07 01:55:32;;;;;;;9.68;2.03;;;410.30;1382.40;;;;;;5068117;28;20373;-74
2021/05/07 01:58:00;;;;;;;2.13;1.73;;;410.40;1382.40;;;;;;5052997;28;20457;-73
2021/05/07 02:00:28;;;;;;;4.47;1.40;;;410.20;1382.40;;;;;;5053181;28;20052;-74
2021/05/07 02:02:54;;;;;;;5.10;2.08;;;410.20;1382.40;;;;;;5053120;28;20078;-74
2021/05/07 02:05:22;;;;;;;2.88;2.15;;;410.20;1382.40;;;;;;5068590;28;20138;-74
2021/05/07 02:07:49;;;;;;;1.73;1.38;;;410.20;1382.40;;;;;;5053424;28;20025;-74
2021/05/07 02:10:21;;;;;;;4.13;1.65;;;410.40;1382.40;;;;;;5068524;28;20049;-75
2021/05/07 02:12:48;;;;;;;3.05;1.77;;;410.30;1382.40;;;;;;5053057;28;20025;-74
2021/05/07 02:15:16;;;;;;;2.47;1.45;;;410.40;1382.40;;;;;;5053074;28;20029;-74
2021/05/07 02:17:42;;;;;;;3.88;1.73;;;410.40;1382.40;;;;;;5053262;28;20465;-74
2021/05/07 02:20:13;;;;;;;5.20;2.00;;;410.40;1382.40;;;;;;5054525;28;20025;-73
2021/05/07 02:22:39;;;;;;;;;;;410.40;1382.40;;;;;;5057611;28;20053;-74
2021/05/07 02:25:05;;;;;;;5.55;2.17;;;410.40;1382.40;;;;;;5072722;28;20368;-75
2021/05/07 02:27:31;;;;;;;4.35;1.98;;;410.40;1408.00;;;;;;5072018;28;20036;-73
2021/05/07 02:29:57;;;;;;;7.25;1.75;;;410.40;1382.40;;;;;;5071291;28;20485;-74
2021/05/07 02:32:23;;;;;;;4.68;1.90;;;410.40;1408.00;;;;;;5057011;28;20044;-74
2021/05/07 02:34:48;;;;;;;4.03;2.20;;;410.40;1408.00;;;;;;5056761;28;20028;-73
2021/05/07 02:37:14;;;;;;;5.25;2.10;;;410.30;1408.00;;;;;;5055736;28;20025;-74
2021/05/07 02:39:40;;;;;;;3.05;2.10;;;410.40;1408.00;;;;;;5056508;28;20388;-74
2021/05/07 02:42:06;;;;;;;2.65;1.92;;;410.40;1408.00;;;;;;5056902;28;20029;-74
2021/05/07 02:44:31;;;;;;;5.55;2.28;;;410.30;1408.00;;;;;;5056525;28;20021;-73
2021/05/07 02:47:03;;;;;;;3.70;2.00;;;410.30;1408.00;;;;;;5056836;28;20025;-75
2021/05/07 02:49:36;;;;;;;3.42;2.40;;;410.40;1408.00;;;;;;5056520;28;20083;-74
2021/05/07 02:52:03;;;;;;;4.60;2.00;;;410.30;1433.60;;;;;;5056350;28;20025;-75
2021/05/07 02:54:32;;;;;;;2.88;2.08;;;410.20;1408.00;;;;;;5056391;28;20021;-73
2021/05/07 02:56:59;;;;;;;5.22;2.42;;;410.30;1433.60;;;;;;5056369;28;20017;-73
2021/05/07 02:59:25;;;;;;;4.82;1.95;;;410.20;1433.60;;;;;;5071842;28;20021;-74
2021/05/07 03:01:52;;;;;;;4.13;2.40;;;410.20;1433.60;;;;;;5056201;28;20033;-73
2021/05/07 03:04:18;;;;;;;4.18;1.98;;;410.20;1433.60;;;;;;5056530;28;20484;-73
2021/05/07 03:06:45;;;;;;;5.97;2.05;;;410.40;1433.60;;;;;;5056564;28;20431;-75
2021/05/07 03:09:11;;;;;;;5.63;2.42;;;410.40;1459.20;;;;;;5071523;28;20021;-73
2021/05/07 03:11:37;;;;;;;3.70;2.25;;;410.40;1459.20;;;;;;5055194;28;20029;-74
2021/05/07 03:14:03;;;;;;;4.70;1.80;;;410.30;1459.20;;;;;;5056320;28;20496;-74
2021/05/07 03:16:29;;;;;;;5.60;1.85;;;410.30;1459.20;;;;;;5055949;28;20025;-74
2021/05/07 03:18:55;;;;;;;4.00;1.80;;;410.20;1484.80;;;;;;5054562;28;20401;-74
2021/05/07 03:21:22;;;;;;;7.82;2.33;;;410.20;1484.80;;;;;;5056102;28;20029;-74
2021/05/07 03:23:47;;;;;;;8.60;2.72;;;410.30;1484.80;;;;;;5055896;28;20025;-73
2021/05/07 03:26:13;;;;;;;3.10;2.33;;;410.30;1459.20;;;;;;5055822;28;20032;-73
2021/05/07 03:28:39;;;;;;;2.50;2.28;;;410.30;1459.20;;;;;;5054432;28;20443;-74
2021/05/07 03:31:09;;;;;;;6.40;2.55;;;410.40;1484.80;;;;;;5053862;28;20049;-74
2021/05/07 03:33:35;;;;;;;6.90;1.85;;;410.20;1484.80;;;;;;5055386;28;20108;-74
2021/05/07 03:36:01;;;;;;;7.85;1.90;;;410.30;1484.80;;;;;;5055856;28;20017;-75
2021/05/07 03:38:27;;;;;;;7.00;2.15;;;410.40;1459.20;;;;;;5054977;28;20017;-74
2021/05/07 03:40:53;;;;;;;2.95;1.90;;;410.40;1459.20;;;;;;5071048;28;20104;-75
2021/05/07 03:43:19;;;;;;;5.32;2.47;;;410.40;1459.20;;;;;;5070965;28;20485;-74
2021/05/07 03:45:45;;;;;;;4.63;1.80;;;410.40;1459.20;;;;;;5070867;28;20028;-74
2021/05/07 03:48:15;;;;;;;3.47;1.90;;;410.40;1484.80;;;;;;5055420;28;20021;-75
2021/05/07 03:50:41;;;;;;;6.70;2.15;;;410.40;1459.20;;;;;;5055539;28;20021;-75
2021/05/07 03:53:12;;;;;;;7.25;2.03;;;410.50;1484.80;;;;;;5054465;28;20044;-74
2021/05/07 03:55:39;;;;;;;4.35;2.25;;;410.50;1484.80;;;;;;5055194;28;20025;-74
2021/05/07 03:58:06;;;;;;;5.50;2.22;;;410.50;1459.20;;;;;;5070926;28;20124;-74
2021/05/07 04:00:32;;;;;;;4.47;2.13;;;410.50;1459.20;;;;;;5070989;28;20069;-74
2021/05/07 04:02:57;;;;;;;6.75;3.00;;;410.50;1459.20;;;;;;5055142;28;20029;-76
2021/05/07 04:05:23;;;;;;;9.77;2.80;;;410.50;1484.80;;;;;;5055048;28;20112;-74
2021/05/07 04:08:00;;;;;;;6.68;2.42;;;410.50;1510.40;;;;;;5053690;28;20037;-75
2021/05/07 04:10:28;;;;;;;7.00;3.10;;;410.50;1510.40;;;;;;5053676;28;20405;-75
2021/05/07 04:15:20;;;;;;;4.95;2.45;;;410.50;1510.40;;;;;;5054814;28;20021;-74
2021/05/07 04:17:45;;;;;;;3.60;2.33;;;435.20;1484.80;;;;;;5055150;28;20503;-74
2021/05/07 04:20:12;;;;;;;6.28;2.13;;;410.50;1536.00;;;;;;5054780;28;20384;-75
2021/05/07 04:22:38;;;;;;;6.18;2.63;;;435.20;1510.40;;;;;;5054788;28;20500;-74
2021/05/07 04:25:06;;;;;;;4.85;2.35;;;435.30;1536.00;;;;;;5054667;28;20033;-74
2021/05/07 04:27:32;;;;;;;5.75;2.90;;;435.20;1536.00;;;;;;5054537;28;20107;-74
2021/05/07 04:29:58;;;;;;;2.47;2.28;;;435.30;1536.00;;;;;;5054426;28;20087;-74
2021/05/07 04:32:24;;;;;;;7.47;3.17;;;435.30;1536.00;;;;;;5055720;28;20392;-74
2021/05/07 04:34:50;;;;;;;7.10;2.80;;;435.30;1561.60;;;;;;5052710;28;20078;-74
2021/05/07 04:37:15;;;;;;;6.50;2.08;;;435.20;1536.00;;;;;;5053985;28;20049;-74
2021/05/07 04:39:41;;;;;;;6.90;2.50;;;410.50;1561.60;;;;;;5054315;28;20017;-74
2021/05/07 04:42:07;;;;;;;7.68;2.65;;;410.50;1561.60;;;;;;5069745;28;20052;-75
2021/05/07 04:44:33;;;;;;;6.63;2.58;;;435.20;1561.60;;;;;;5054238;28;20025;-75
2021/05/07 04:46:59;;;;;;;6.70;2.90;;;435.30;1587.20;;;;;;5054222;28;20102;-75
2021/05/07 04:49:26;;;;;;;8.07;3.13;;;435.20;1587.20;;;;;;5054381;28;20048;-74
2021/05/07 04:51:52;;;;;;;10.25;2.55;;;435.20;1587.20;;;;;;5054099;28;20021;-74
2021/05/07 04:54:18;;;;;;;10.13;2.85;;;435.30;1612.80;;;;;;5054031;28;20094;-74
2021/05/07 04:56:44;;;;;;;4.85;2.20;;;435.30;1612.80;;;;;;5054015;28;20047;-74
2021/05/07 04:59:10;;;;;;;14.05;3.28;;;435.30;1612.80;;;;;;5064730;28;20498;-74
2021/05/07 05:01:35;;;;;;;7.75;2.65;;;435.30;1612.80;;;;;;5092939;28;20027;-75
2021/05/07 05:04:01;;;;;;;8.95;3.50;;;435.30;1638.40;;;;;;5094418;28;20597;-76
2021/05/07 05:06:27;;;;;;;9.18;2.78;;;435.30;1638.40;;;;;;5092710;28;20458;-76
2021/05/07 05:08:53;;;;;;;6.63;3.15;;;435.40;1638.40;;;;;;5094346;28;20498;-75
2021/05/07 05:11:19;;;;;;;10.88;2.50;;;435.40;1638.40;;;;;;5088292;28;20125;-74
2021/05/07 05:13:45;;;;;;;6.80;3.05;;;435.50;1612.80;;;;;;5073654;28;20052;-75
2021/05/07 05:16:10;;;;;;;6.22;2.90;;;435.50;1612.80;;;;;;5073844;28;20021;-75
2021/05/07 05:18:39;;;;;;;10.15;2.95;;;435.50;1638.40;;;;;;5068038;28;20105;-74
2021/05/07 05:21:06;;;;;;;13.57;3.50;;;435.50;1638.40;;;;;;5072078;28;20108;-75
2021/05/07 05:23:34;;;;;;;6.45;3.08;;;435.50;1638.40;;;;;;5072082;28;20120;-75
2021/05/07 05:25:59;;;;;;;6.43;2.92;;;435.60;1638.40;;;;;;5073537;28;20039;-75
2021/05/07 05:28:26;;;;;;;4.43;2.60;;;435.50;1664.00;;;;;;5071902;28;20025;-76
2021/05/07 05:30:52;;;;;;;7.25;3.00;;;435.60;1638.40;;;;;;5072079;28;20044;-75
2021/05/07 05:33:18;;;;;;;4.97;2.85;;;435.70;1664.00;;;;;;5073490;28;20078;-75
2021/05/07 05:35:45;;;;;;;6.05;3.20;;;435.70;1664.00;;;;;;5073382;28;20086;-75
2021/05/07 05:38:10;;;;;;;5.85;2.53;;;435.80;1638.40;;;;;;5073208;28;20024;-75
2021/05/07 05:40:36;;;;;;;8.48;3.40;;;435.80;1638.40;;;;;;5071971;28;20029;-75
2021/05/07 05:43:02;;;;;;;6.82;3.03;;;435.80;1664.00;;;;;;5072598;28;20028;-75
2021/05/07 05:45:27;;;;;;;9.68;2.97;;;435.80;1638.40;;;;;;5051557;28;20044;-74
2021/05/07 05:48:04;;;;;;;9.10;4.25;;;435.80;1664.00;;;;;;5068793;28;20029;-76
2021/05/07 05:50:31;;;;;;;11.60;3.40;;;435.90;1689.60;;;;;;5070571;28;20028;-75
2021/05/07 05:52:57;;;;;;;4.97;3.47;;;435.90;1689.60;;;;;;5052322;28;20031;-75
2021/05/07 05:55:23;;;;;;;7.75;3.38;;;436.00;1664.00;;;;;;5051226;28;20025;-75
2021/05/07 05:57:51;;;;;;;5.63;3.55;;;436.00;1689.60;;;;;;5050901;28;20032;-75
2021/05/07 06:00:18;;;;;;;5.90;3.00;;;436.10;1689.60;;;;;;5052212;28;20029;-75
2021/05/07 06:02:44;;;;;;;6.82;3.20;;;460.80;1715.20;;;;;;5067379;28;20037;-75
2021/05/07 06:05:11;;;;;;;6.78;3.17;;;460.80;1715.20;;;;;;5061930;28;20564;-75
2021/05/07 06:07:37;;;;;;;9.63;3.58;;;460.90;1715.20;;;;;;5075664;28;20039;-75
2021/05/07 06:10:05;;;;;;;7.57;3.28;;;461.00;1715.20;;;;;;5053420;28;20528;-75
2021/05/07 06:12:30;;;;;;;7.28;3.67;;;461.00;1715.20;;;;;;5069246;28;20039;-76
2021/05/07 06:14:56;;;;;;;7.95;3.80;;;461.00;1715.20;;;;;;5064029;28;20096;-75
2021/05/07 06:17:22;;;;;;;5.97;2.97;;;461.00;1715.20;;;;;;5054765;28;20025;-76
2021/05/07 06:19:47;;;;;;;8.48;3.67;;;461.10;1715.20;;;;;;5052966;28;20354;-75
2021/05/07 06:22:13;;;;;;;8.80;3.00;;;461.20;1715.20;;;;;;5053522;28;20029;-75
2021/05/07 06:24:39;;;;;;;4.70;3.53;;;461.20;1715.20;;;;;;5052972;28;20052;-75
2021/05/07 06:27:05;;;;;;;7.68;3.13;;;461.30;1715.20;;;;;;5052948;28;20032;-75
2021/05/07 06:29:31;;;;;;;7.95;3.85;;;461.30;1740.80;;;;;;5051195;28;20049;-76
2021/05/07 06:31:57;;;;;;;7.47;3.88;;;461.30;1740.80;;;;;;5051183;28;20040;-75
2021/05/07 06:34:22;;;;;;;10.13;4.40;;;461.50;1740.80;;;;;;5052887;28;20376;-75
2021/05/07 06:36:49;;;;;;;15.27;5.75;;;461.50;1740.80;;;;;;5051241;28;20021;-75
2021/05/07 06:39:14;;;;;;;15.15;4.63;;;461.50;1766.40;;;;;;5051451;28;20044;-75
2021/05/07 06:41:40;;;;;;;5.90;3.90;;;461.60;1740.80;;;;;;5052689;28;20029;-75
2021/05/07 06:44:07;;;;;;;10.15;4.72;;;461.60;1740.80;;;;;;5050901;28;20029;-74
2021/05/07 06:46:33;;;;;;;11.23;3.42;;;461.70;1740.80;;;;;;5052115;28;20025;-74
2021/05/07 06:48:58;;;;;;;6.03;3.70;;;461.70;1740.80;;;;;;5052394;28;20079;-75
2021/05/07 06:51:26;;;;;;;9.10;4.40;;;461.70;1740.80;;;;;;5052933;28;20052;-74
2021/05/07 06:53:52;;;;;;;7.05;4.57;;;486.40;1740.80;;;;;;5051329;28;20384;-75
2021/05/07 06:56:21;;;;;;;6.80;4.22;;;486.40;1740.80;;;;;;5051419;28;20120;-75
2021/05/07 06:58:47;;;;;;;8.90;4.25;;;486.50;1715.20;;;;;;5051368;28;20075;-74
2021/05/07 07:01:13;;;;;;;10.93;5.13;;;486.60;1715.20;;;;;;5052594;28;20027;-75
2021/05/07 07:03:38;;;;;;;12.32;5.38;;;486.60;1689.60;;;;;;5051061;28;20029;-75
2021/05/07 07:06:04;;;;;;;9.95;4.38;;;486.60;1689.60;;;;;;5052169;28;20029;-75
2021/05/07 07:08:30;;;;;;;10.70;4.30;;;486.70;1689.60;;;;;;5055636;28;20052;-75
2021/05/07 07:10:58;;;;;;;11.80;4.65;;;486.70;1664.00;;;;;;5056043;28;20390;-75
2021/05/07 07:13:24;;;;;;;7.75;4.82;;;486.80;1689.60;;;;;;5054074;28;20068;-74
2021/05/07 07:15:50;;;;;;;15.02;4.60;;;486.90;1689.60;;;;;;5055112;28;20533;-75
2021/05/07 07:18:20;;;;;;;9.13;4.97;;;486.90;1689.60;;;;;;5055954;28;20096;-76
2021/05/07 07:20:46;;;;;;;64.40;9.60;;;487.00;1689.60;;;;;;5055000;28;20112;-75
2021/05/07 07:23:12;;;;;;;26.95;5.43;;;487.10;1715.20;;;;;;5054807;28;20115;-76
2021/05/07 07:25:38;;;;;;;26.95;5.68;;;487.20;1715.20;;;;;;5055249;28;20025;-75
2021/05/07 07:28:05;;;;;;;138.77;13.15;;;487.20;1715.20;;;;;;5054651;28;20074;-75
2021/05/07 07:30:31;;;;;;;92.75;9.48;;;487.30;1689.60;;;;;;5054463;28;20521;-75
2021/05/07 07:32:56;;;;;;;33.03;5.22;;;512.00;1689.60;;;;;;5055576;28;20025;-76
2021/05/07 07:35:22;;;;;;;30.55;4.35;;;512.00;1689.60;;;;;;5054574;28;20501;-77
2021/05/07 07:37:48;;;;;;;18.30;4.60;;;512.10;1715.20;;;;;;5054386;28;20020;-77
2021/05/07 07:40:14;;;;;;;19.40;4.80;;;512.20;1689.60;;;;;;5054538;28;20102;-75
2021/05/07 07:42:40;;;;;;;18.52;4.10;;;512.30;1715.20;;;;;;5055511;28;20488;-77
2021/05/07 07:45:08;;;;;;;22.67;3.72;;;512.40;1740.80;;;;;;5054008;28;20033;-77
2021/05/07 07:47:34;;;;;;;24.33;5.93;;;512.50;1689.60;;;;;;5055567;28;20476;-76
2021/05/07 07:50:00;;;;;;;25.38;5.90;;;512.60;1664.00;;;;;;5055656;28;20044;-76
2021/05/07 07:52:26;;;;;;;45.00;4.70;;;512.70;1638.40;;;;;;5055106;28;20025;-76
2021/05/07 07:54:52;;;;;;;19.38;3.28;;;512.80;1689.60;;;;;;5055299;28;20427;-77
2021/05/07 07:57:18;;;;;;;9.82;2.10;;;512.80;1536.00;;;;;;5055505;28;20100;-76
2021/05/07 07:59:43;;;;;;;9.07;2.10;;;512.80;1484.80;;;;;;5055320;28;20032;-77
2021/05/07 08:02:09;;;;;;;20.60;2.38;;;512.80;1433.60;;;;;;5055183;28;20033;-76
2021/05/07 08:04:36;;;;;;;7.78;2.13;;;512.90;1408.00;;;;;;5055228;28;20022;-76
2021/05/07 08:07:01;;;;;;;12.65;2.53;;;512.90;1433.60;;;;;;5054543;28;20083;-77
2021/05/07 08:09:27;;;;;;;7.88;2.15;;;512.90;1459.20;;;;;;5054750;28;20033;-77
2021/05/07 08:11:53;;;;;;;37.50;5.50;;;537.60;1536.00;;;;;;5055046;28;20029;-76
2021/05/07 08:14:19;;;;;;;12.30;1.58;;;537.60;1433.60;;;;;;5053747;28;20480;-75
2021/05/07 08:16:45;;;;;;;18.67;1.92;;;537.60;1408.00;;;;;;5054849;28;20017;-77
2021/05/07 08:19:11;;;;;;;13.63;3.13;;;537.60;1433.60;;;;;;5052868;28;20029;-79
2021/05/07 08:21:37;;;;;;;27.83;4.00;;;537.60;1433.60;;;;;;5054604;28;20044;-75
2021/05/07 08:24:04;;;;;;;7.80;3.00;;;537.60;1484.80;;;;;;5054759;28;20031;-74
2021/05/07 08:26:29;;;;;;;11.00;2.42;;;537.60;1382.40;;;;;;5054578;28;20025;-74
2021/05/07 08:28:55;;;;;;;19.38;2.53;;;537.60;1382.40;;;;;;5053340;28;20047;-75
2021/05/07 08:31:21;;;;;;;18.77;2.00;;;537.60;1408.00;;;;;;5052852;28;20041;-75
2021/05/07 08:33:46;;;;;;;8.45;2.50;;;537.60;1408.00;;;;;;5053020;28;20056;-75
2021/05/07 08:36:12;;;;;;;5.82;2.38;;;512.90;1356.80;;;;;;5053127;28;20052;-75
2021/05/07 08:38:38;;;;;;;10.95;2.58;;;512.90;1382.40;;;;;;5035919;28;20037;-74
2021/05/07 08:41:04;;;;;;;7.60;2.13;;;512.90;1356.80;;;;;;5054336;28;20372;-74
2021/05/07 08:43:31;;;;;;;7.63;2.15;;;512.90;1356.80;;;;;;5054541;28;20109;-74
2021/05/07 08:46:02;;;;;;;7.25;2.45;;;512.90;1356.80;;;;;;5054034;28;20017;-74
2021/05/07 08:48:29;;;;;;;8.73;2.95;;;512.90;1356.80;;;;;;5054048;28;20017;-75
2021/05/07 08:50:55;;;;;;;6.82;2.63;;;512.80;1356.80;;;;;;5053794;28;20017;-75
2021/05/07 08:53:21;;;;;;;7.32;2.50;;;512.80;1382.40;;;;;;5054049;28;20080;-75
2021/05/07 08:55:47;;;;;;;7.60;2.30;;;512.80;1382.40;;;;;;5054349;28;20022;-75
2021/05/07 08:58:16;;;;;;;19.33;2.70;;;512.80;1356.80;;;;;;5052833;28;20021;-75
2021/05/07 09:00:42;;;;;;;16.85;2.67;;;512.80;1382.40;;;;;;5052682;28;20029;-74
2021/05/07 09:03:12;;;;;;;12.27;4.22;;;512.80;1382.40;;;;;;5052346;28;20033;-75
2021/05/07 09:05:38;;;;;;;44.13;4.67;;;512.80;1382.40;;;;;;5035444;28;20037;-75
2021/05/07 09:08:08;;;;;;;41.20;4.07;;;512.80;1382.40;;;;;;5053992;28;20092;-74
2021/05/07 09:10:46;;;;;;;29.52;4.00;;;512.90;1459.20;;;;;;5053880;28;20376;-74
2021/05/07 09:13:14;;;;;;;25.27;5.40;;;512.80;1408.00;;;;;;5053933;28;20476;-74
2021/05/07 09:15:52;;;;;;;21.80;4.28;;;512.80;1484.80;;;;;;5053738;28;20051;-74
2021/05/07 09:18:18;;;;;;;12.90;3.72;;;512.80;1484.80;;;;;;5053643;28;20044;-74
2021/05/07 09:20:49;;;;;;;22.23;4.88;;;512.80;1459.20;;;;;;5052441;28;20476;-73
2021/05/07 09:23:17;;;;;;;50.55;7.18;;;512.80;1459.20;;;;;;5052400;28;20029;-74
2021/05/07 09:25:48;;;;;;;88.45;8.02;;;512.80;1536.00;;;;;;5053643;28;20117;-76
2021/05/07 09:28:16;;;;;;;64.80;6.65;;;538.00;1894.40;;;;;;5053883;28;20036;-77
2021/05/07 09:30:43;;;;;;;172.90;14.43;;;537.70;1587.20;;;;;;5052741;28;20095;-75
2021/05/07 09:33:12;;;;;;;93.32;8.55;;;537.70;1587.20;;;;;;5053562;28;20133;-74
2021/05/07 09:35:39;;;;;;;38.50;5.85;;;537.70;1587.20;;;;;;5052522;28;20021;-74
2021/05/07 09:38:18;;;;;;;29.30;6.13;;;537.60;1612.80;;;;;;5052288;28;20032;-76
2021/05/07 09:40:44;;;;;;;32.92;5.25;;;512.90;1587.20;;;;;;5052299;28;20075;-76
2021/05/07 09:43:15;;;;;;;16.75;5.28;;;512.90;1536.00;;;;;;5053654;28;20033;-76
2021/05/07 09:45:45;;;;;;;23.95;3.97;;;537.60;1587.20;;;;;;5053418;28;20021;-76
2021/05/07 09:48:28;;;;;;;27.00;3.30;;;537.60;1587.20;;;;;;5053455;28;20501;-77
2021/05/07 09:50:58;;;;;;;75.25;6.72;;;512.90;1536.00;;;;;;5053221;28;20032;-76
2021/05/07 09:53:29;;;;;;;42.00;6.43;;;537.60;1638.40;;;;;;5052909;28;20025;-77
2021/05/07 09:55:57;;;;;;;31.50;4.90;;;512.90;1587.20;;;;;;5053062;28;20021;-76
2021/05/07 09:58:22;;;;;;;59.97;7.10;;;512.90;1612.80;;;;;;5052874;28;20079;-77
2021/05/07 10:00:48;;;;;;;60.63;7.07;;;512.80;1612.80;;;;;;5034099;28;20033;-76
2021/05/07 10:03:14;;;;;;;12.63;5.18;;;512.80;1638.40;;;;;;5051845;28;20029;-76
2021/05/07 10:05:40;;;;;;;37.40;5.95;;;512.70;1689.60;;;;;;5051829;28;20031;-78
2021/05/07 10:08:06;;;;;;;79.97;9.82;;;512.70;1689.60;;;;;;5052937;28;20036;-78
2021/05/07 10:10:38;;;;;;;52.40;7.22;;;512.70;1638.40;;;;;;5051837;28;20396;-78
2021/05/07 10:13:07;;;;;;;43.63;7.22;;;512.50;1612.80;;;;;;5051349;28;20125;-78
2021/05/07 10:15:37;;;;;;;16.67;5.28;;;512.70;1612.80;;;;;;5051807;28;20431;-75
2021/05/07 10:18:11;;;;;;;13.60;4.72;;;512.70;1664.00;;;;;;5052283;28;20017;-75
2021/05/07 10:20:41;;;;;;;15.18;4.82;;;512.60;1664.00;;;;;;5051326;28;20041;-76
2021/05/07 10:23:20;;;;;;;9.48;5.78;;;512.40;1715.20;;;;;;5053111;28;20067;-75
2021/05/07 10:25:55;;;;;;;10.05;5.50;;;512.10;1766.40;;;;;;5051713;28;20481;-75
2021/05/07 10:28:22;;;;;;;5.88;4.50;;;512.10;1740.80;;;;;;5050741;28;20052;-75
2021/05/07 10:30:48;;;;;;;6.88;4.00;;;512.00;1766.40;;;;;;5052354;28;20091;-74
2021/05/07 10:33:19;;;;;;;9.35;4.43;;;487.30;1766.40;;;;;;5051464;28;20041;-75
2021/05/07 10:35:56;;;;;;;13.30;4.80;;;487.30;1740.80;;;;;;5052997;28;20025;-75
2021/05/07 10:38:25;;;;;;;27.65;5.63;;;487.30;1766.40;;;;;;5052835;28;20052;-76
2021/05/07 10:41:06;;;;;;;7.43;4.60;;;487.30;1766.40;;;;;;5055809;28;20074;-76
2021/05/07 10:43:36;;;;;;;;;;;487.20;1766.40;;;;;;5056085;28;20079;-76
2021/05/07 10:46:02;;;;;;;9.40;4.72;;;487.20;1792.00;;;;;;5055429;28;19963;-75
2021/05/07 10:48:27;;;;;;;9.40;4.07;;;487.10;1817.60;;;;;;5056641;28;20116;-76
2021/05/07 10:51:13;;;;;;;9.85;6.10;;;487.10;1817.60;;;;;;5056653;28;20025;-78
2021/05/07 10:53:39;;;;;;;6.90;4.13;;;487.00;1817.60;;;;;;5055223;28;20059;-77
2021/05/07 10:56:16;;;;;;;15.15;4.95;;;487.00;1817.60;;;;;;5056396;28;20476;-75
2021/05/07 10:58:42;;;;;;;4.97;4.22;;;487.00;1817.60;;;;;;5074217;28;20025;-75
2021/05/07 11:01:21;;;;;;;17.02;4.60;;;487.00;1817.60;;;;;;5075366;28;20023;-74
2021/05/07 11:04:01;;;;;;;8.90;4.75;;;487.00;1817.60;;;;;;5074320;28;20143;-75
2021/05/07 11:06:32;;;;;;;7.60;4.63;;;487.00;1843.20;;;;;;5074964;28;20024;-75
2021/05/07 11:08:58;;;;;;;12.50;5.50;;;487.00;1843.20;;;;;;5071352;28;20085;-75
2021/05/07 11:11:24;;;;;;;12.55;4.57;;;487.00;1868.80;;;;;;5074208;28;20024;-75
2021/05/07 11:13:50;;;;;;;11.75;5.82;;;487.00;1868.80;;;;;;5073986;28;20032;-76
2021/05/07 11:16:15;;;;;;;7.05;3.92;;;487.10;1868.80;;;;;;5074141;28;20107;-75
2021/05/07 11:18:47;;;;;;;7.63;4.72;;;487.20;1868.80;;;;;;5075819;28;20021;-76
2021/05/07 11:21:14;;;;;;;5.72;3.78;;;487.30;1868.80;;;;;;5075684;28;20021;-76
2021/05/07 11:23:41;;;;;;;18.73;4.15;;;512.00;1843.20;;;;;;5074533;28;20024;-74
2021/05/07 11:26:08;;;;;;;58.33;7.28;;;512.10;1843.20;;;;;;5075902;28;20021;-75
2021/05/07 11:28:42;;;;;;;12.70;3.90;;;512.10;1868.80;;;;;;5075679;28;20469;-75
2021/05/07 11:31:08;;;;;;;61.22;6.45;;;512.10;1817.60;;;;;;5075618;28;20037;-77
2021/05/07 11:33:34;;;;;;;31.70;4.47;;;512.20;1817.60;;;;;;5075710;28;20111;-74
2021/05/07 11:36:13;;;;;;;22.70;3.33;;;512.30;1817.60;;;;;;5073028;28;20021;-77
2021/05/07 11:38:41;;;;;;;11.45;3.40;;;512.40;1817.60;;;;;;5054025;28;20033;-78
2021/05/07 11:41:22;;;;;;;26.20;3.70;;;512.50;1817.60;;;;;;5074318;28;20052;-76
2021/05/07 11:43:52;;;;;;;15.35;4.75;;;512.40;1817.60;;;;;;5077048;28;20112;-73
2021/05/07 11:46:19;;;;;;;13.15;3.15;;;512.40;1843.20;;;;;;5075209;28;20409;-74
2021/05/07 11:48:50;;;;;;;27.10;3.97;;;512.30;1843.20;;;;;;5080699;28;20063;-74
2021/05/07 11:51:16;;;;;;;11.38;2.78;;;512.20;1817.60;;;;;;5082353;28;20023;-77
2021/05/07 11:53:43;;;;;;;21.45;6.03;;;512.10;1843.20;;;;;;5077109;28;20016;-76
2021/05/07 11:56:21;;;;;;;28.55;3.90;;;512.10;1817.60;;;;;;5076981;28;20393;-76
2021/05/07 11:58:49;;;;;;;9.38;2.83;;;512.10;1843.20;;;;;;5082637;28;20021;-76
2021/05/07 12:01:17;;;;;;;21.40;2.90;;;512.10;1817.60;;;;;;5079631;28;20017;-76
2021/05/07 12:03:43;;;;;;;68.47;7.03;;;487.30;1843.20;;;;;;5073707;28;20139;-81
2021/05/07 12:06:26;;;;;;;61.70;5.28;;;487.30;1843.20;;;;;;5073865;28;20051;-81
2021/05/07 12:08:52;;;;;;;32.63;4.60;;;487.20;1868.80;;;;;;5074795;28;20032;-79
2021/05/07 12:11:19;;;;;;;15.93;3.03;;;487.20;1868.80;;;;;;5074682;28;20027;-82
2021/05/07 12:13:46;;;;;;;19.20;3.75;;;487.10;1868.80;;;;;;5074218;28;20472;-83
2021/05/07 12:16:13;;;;;;;28.45;4.72;;;487.00;1894.40;;;;;;5074864;28;20021;-82
2021/05/07 12:18:48;;;;;;;24.13;3.22;;;487.00;1843.20;;;;;;5074404;28;20088;-84
2021/05/07 12:21:15;;;;;;;39.65;5.00;;;486.90;1920.00;;;;;;5075580;28;20027;-83